Time;durP1;ratioP1;P1;durP2;ratioP2;P2;SDS_P1;SDS_P2;PMS_P1;PMS_P2;Temp;Humidity;BMP_temperature;BMP_pressure;BME280_temperature;BME280_humidity;BME280_pressure;Samples;Min_cycle;Max_cycle;Signal;HPM_P1;HPM_P2
2023/04/12 00:01:45;;;;;;;2.50;2.27;;;7.80;99.90;;;;;;4971805;28;20274;-49
2023/04/12 00:04:13;;;;;;;3.03;2.33;;;7.80;99.90;;;;;;4972783;28;20693;-49
2023/04/12 00:06:40;;;;;;;3.40;2.00;;;7.80;99.90;;;;;;4973746;28;20703;-50
2023/04/12 00:09:07;;;;;;;3.80;2.17;;;7.80;99.90;;;;;;4972707;28;20216;-50
2023/04/12 00:11:35;;;;;;;2.70;2.53;;;7.80;99.90;;;;;;4973909;28;20207;-50
2023/04/12 00:14:02;;;;;;;2.90;2.30;;;7.80;99.90;;;;;;4972794;28;20269;-50
2023/04/12 00:16:30;;;;;;;3.17;2.10;;;7.80;99.90;;;;;;4972253;28;20218;-49
2023/04/12 00:18:57;;;;;;;2.57;2.37;;;7.80;99.90;;;;;;4973213;28;20224;-49
2023/04/12 00:21:27;;;;;;;7.10;3.00;;;7.80;99.90;;;;;;4972485;28;20620;-49
2023/04/12 00:23:55;;;;;;;5.37;1.90;;;7.80;99.90;;;;;;4972166;28;20204;-49
2023/04/12 00:26:23;;;;;;;2.27;2.10;;;7.70;99.90;;;;;;4972299;28;20606;-49
2023/04/12 00:28:50;;;;;;;3.90;2.37;;;7.70;99.90;;;;;;4972665;28;20217;-50
2023/04/12 00:31:17;;;;;;;2.30;1.83;;;7.70;99.90;;;;;;4971591;28;20202;-49
2023/04/12 00:33:46;;;;;;;2.57;2.10;;;7.70;99.90;;;;;;4972386;28;20260;-51
2023/04/12 00:36:13;;;;;;;5.67;2.57;;;7.70;99.90;;;;;;4965124;28;20202;-51
2023/04/12 00:38:41;;;;;;;1.63;1.63;;;7.70;99.90;;;;;;4971764;28;20226;-49
2023/04/12 00:41:08;;;;;;;3.50;2.10;;;7.70;99.90;;;;;;4971123;28;20297;-49
2023/04/12 00:43:35;;;;;;;2.33;1.70;;;7.60;99.90;;;;;;4972064;28;20264;-49
2023/04/12 00:46:02;;;;;;;4.03;2.50;;;7.70;99.90;;;;;;4972964;28;20208;-49
2023/04/12 00:48:29;;;;;;;3.17;2.00;;;7.70;99.90;;;;;;4969955;28;20232;-49
2023/04/12 00:50:57;;;;;;;2.93;2.00;;;7.60;99.90;;;;;;4972286;28;20254;-49
2023/04/12 00:53:25;;;;;;;1.57;1.27;;;7.60;99.90;;;;;;4972226;28;20269;-49
2023/04/12 00:55:52;;;;;;;2.80;2.37;;;7.60;99.90;;;;;;4972729;28;20216;-49
2023/04/12 00:58:20;;;;;;;2.67;2.47;;;7.60;99.90;;;;;;4973101;28;20305;-49
2023/04/12 01:00:51;;;;;;;4.83;2.60;;;7.70;99.90;;;;;;4973047;28;20264;-49
2023/04/12 01:03:21;;;;;;;4.00;1.60;;;7.60;99.90;;;;;;4972299;28;20213;-49
2023/04/12 01:05:59;;;;;;;2.20;1.83;;;7.60;99.90;;;;;;4962619;28;20253;-49
2023/04/12 01:08:38;;;;;;;2.63;2.33;;;7.70;99.90;;;;;;4970684;28;20340;-49
2023/04/12 01:11:17;;;;;;;3.77;1.30;;;7.60;99.90;;;;;;4973041;28;20233;-49
2023/04/12 01:13:51;;;;;;;2.10;1.30;;;7.70;99.90;;;;;;4972165;28;20296;-49
2023/04/12 01:16:27;;;;;;;1.73;1.10;;;7.70;99.90;;;;;;4970620;28;20279;-49
2023/04/12 01:18:58;;;;;;;5.10;1.73;;;7.70;99.90;;;;;;4965583;28;20662;-49
2023/04/12 01:21:35;;;;;;;1.20;1.10;;;7.70;99.90;;;;;;4971053;28;20206;-49
2023/04/12 01:24:34;;;;;;;2.50;1.20;;;7.70;99.90;;;;;;4971512;28;20208;-49
2023/04/12 01:27:02;;;;;;;2.53;1.10;;;7.70;99.90;;;;;;4967324;28;20578;-49
2023/04/12 01:29:32;;;;;;;2.30;0.73;;;7.70;99.90;;;;;;4970241;28;20712;-49
2023/04/12 01:32:01;;;;;;;0.90;0.87;;;7.70;99.90;;;;;;4972621;28;20201;-49
2023/04/12 01:34:31;;;;;;;1.63;0.97;;;7.70;99.90;;;;;;4963847;28;20599;-49
2023/04/12 01:37:01;;;;;;;3.47;0.83;;;7.60;99.90;;;;;;4970799;28;20221;-49
2023/04/12 01:39:29;;;;;;;0.93;0.70;;;7.60;99.90;;;;;;4970103;28;20596;-49
2023/04/12 01:41:56;;;;;;;2.57;1.63;;;7.60;99.90;;;;;;4971019;28;20217;-49
2023/04/12 01:44:23;;;;;;;2.37;1.30;;;7.60;99.90;;;;;;4972841;28;20249;-49
2023/04/12 01:46:52;;;;;;;1.93;1.67;;;7.60;99.90;;;;;;4972447;28;20815;-49
2023/04/12 01:49:21;;;;;;;1.80;1.47;;;7.70;99.90;;;;;;4970393;28;20228;-49
2023/04/12 01:51:52;;;;;;;4.33;1.37;;;7.70;99.90;;;;;;4964741;28;20202;-49
2023/04/12 01:54:23;;;;;;;1.33;1.23;;;7.70;99.90;;;;;;4973087;28;20272;-49
2023/04/12 01:56:56;;;;;;;3.60;1.90;;;7.70;99.90;;;;;;4975993;28;20283;-49
2023/04/12 01:59:26;;;;;;;2.10;2.00;;;7.60;99.90;;;;;;4975682;28;20256;-49
2023/04/12 02:01:55;;;;;;;2.17;2.07;;;7.60;99.90;;;;;;4974502;28;20204;-49
2023/04/12 02:04:24;;;;;;;3.43;2.83;;;7.60;99.90;;;;;;4975606;28;20245;-49
2023/04/12 02:06:51;;;;;;;3.43;2.30;;;7.50;99.90;;;;;;4970738;28;20273;-49
2023/04/12 02:09:18;;;;;;;3.23;2.93;;;7.50;99.90;;;;;;4971391;28;20227;-49
2023/04/12 02:11:48;;;;;;;2.40;2.30;;;7.50;99.90;;;;;;4975051;28;20210;-49
2023/04/12 02:14:15;;;;;;;4.27;2.80;;;7.50;99.90;;;;;;4975920;28;20235;-49
2023/04/12 02:16:43;;;;;;;2.73;2.53;;;7.50;99.90;;;;;;4971088;28;20201;-49
2023/04/12 02:19:11;;;;;;;6.07;4.00;;;7.40;99.90;;;;;;4969217;28;20225;-49
2023/04/12 02:21:42;;;;;;;3.27;3.07;;;7.50;99.90;;;;;;4975391;28;20632;-49
2023/04/12 02:24:10;;;;;;;3.40;3.10;;;7.50;99.90;;;;;;4973231;28;20210;-49
2023/04/12 02:26:37;;;;;;;5.03;4.07;;;7.50;99.90;;;;;;4974743;28;20213;-49
2023/04/12 02:29:06;;;;;;;4.17;3.40;;;7.50;99.90;;;;;;4973327;28;20221;-49
2023/04/12 02:31:33;;;;;;;6.10;3.80;;;7.50;99.90;;;;;;4972406;28;20202;-49
2023/04/12 02:34:00;;;;;;;5.87;2.90;;;7.50;99.90;;;;;;4969571;28;20209;-49
2023/04/12 02:36:28;;;;;;;6.57;3.10;;;7.50;99.90;;;;;;4975602;28;20206;-49
2023/04/12 02:38:56;;;;;;;3.03;2.50;;;7.50;99.90;;;;;;4974926;28;20241;-49
2023/04/12 02:41:23;;;;;;;3.27;2.83;;;7.50;99.90;;;;;;4972788;28;20583;-48
2023/04/12 02:43:51;;;;;;;2.30;2.30;;;7.50;99.90;;;;;;4972865;28;20232;-49
2023/04/12 02:46:20;;;;;;;2.87;2.70;;;7.50;99.90;;;;;;4971118;28;20198;-49
2023/04/12 02:48:47;;;;;;;3.17;1.97;;;7.60;99.90;;;;;;4971408;28;20290;-49
2023/04/12 02:51:14;;;;;;;2.33;2.23;;;7.50;99.90;;;;;;4974227;28;20198;-49
2023/04/12 02:53:42;;;;;;;2.03;1.93;;;7.60;99.90;;;;;;4974861;28;20644;-49
2023/04/12 02:56:09;;;;;;;1.97;1.97;;;7.60;99.90;;;;;;4973132;28;20215;-49
2023/04/12 02:58:37;;;;;;;5.30;2.90;;;7.60;99.90;;;;;;4974492;28;20292;-49
2023/04/12 03:01:06;;;;;;;2.80;2.60;;;7.60;99.90;;;;;;4973256;28;20225;-49
2023/04/12 03:03:34;;;;;;;1.87;1.47;;;7.50;99.90;;;;;;4972048;28;20578;-49
2023/04/12 03:06:02;;;;;;;1.50;1.50;;;7.60;99.90;;;;;;4974389;28;20687;-49
2023/04/12 03:08:29;;;;;;;1.70;1.63;;;7.60;99.90;;;;;;4968947;28;20704;-49
2023/04/12 03:10:57;;;;;;;2.23;2.13;;;7.60;99.90;;;;;;4966526;28;20226;-49
2023/04/12 03:13:24;;;;;;;2.73;1.60;;;7.60;99.90;;;;;;4973584;28;20261;-49
2023/04/12 03:15:56;;;;;;;2.47;1.83;;;7.60;99.90;;;;;;4974834;28;20289;-49
2023/04/12 03:18:23;;;;;;;2.47;2.20;;;7.50;99.90;;;;;;4971204;28;20230;-49
2023/04/12 03:20:52;;;;;;;1.87;1.87;;;7.60;99.90;;;;;;4972904;28;20231;-49
2023/04/12 03:23:19;;;;;;;2.50;2.30;;;7.60;99.90;;;;;;4974164;28;20212;-49
2023/04/12 03:25:46;;;;;;;2.03;1.93;;;7.50;99.90;;;;;;4969973;28;20204;-49
2023/04/12 03:28:14;;;;;;;2.60;2.20;;;7.40;99.90;;;;;;4968721;28;20784;-49
2023/04/12 03:30:41;;;;;;;4.80;2.90;;;7.40;99.90;;;;;;4974043;28;20678;-49
2023/04/12 03:33:08;;;;;;;3.83;3.20;;;7.30;99.90;;;;;;4974282;28;20295;-49
2023/04/12 03:35:35;;;;;;;2.37;2.13;;;7.30;99.90;;;;;;4964589;28;20270;-49
2023/04/12 03:38:02;;;;;;;3.63;2.30;;;7.30;99.90;;;;;;4973870;28;20220;-50
2023/04/12 03:40:29;;;;;;;3.30;1.80;;;7.30;99.90;;;;;;4972758;28;20278;-49
2023/04/12 03:42:56;;;;;;;1.47;1.47;;;7.40;99.90;;;;;;4967580;28;20236;-49
2023/04/12 03:45:25;;;;;;;1.83;1.73;;;7.30;99.90;;;;;;4974172;28;20201;-49
2023/04/12 03:47:52;;;;;;;2.77;1.47;;;7.40;99.90;;;;;;4973680;28;20230;-49
2023/04/12 03:50:19;;;;;;;4.03;2.47;;;7.40;99.90;;;;;;4997454;23;20213;-49
2023/04/12 03:52:46;;;;;;;0.93;0.93;;;7.40;99.90;;;;;;4971871;28;20264;-49
2023/04/12 03:55:17;;;;;;;0.90;0.83;;;7.40;99.90;;;;;;4972593;28;20254;-49
2023/04/12 03:57:44;;;;;;;0.80;0.80;;;7.40;99.90;;;;;;4972940;28;20296;-49
2023/04/12 04:00:12;;;;;;;3.93;1.37;;;7.40;99.90;;;;;;4972367;28;20640;-49
2023/04/12 04:02:46;;;;;;;1.10;1.10;;;7.50;99.90;;;;;;4970979;28;20217;-49
2023/04/12 04:05:14;;;;;;;1.00;1.00;;;7.40;99.90;;;;;;4973064;28;20201;-48
2023/04/12 04:07:41;;;;;;;1.17;0.93;;;7.40;99.90;;;;;;4973236;28;20588;-50
2023/04/12 04:10:09;;;;;;;1.30;1.30;;;7.50;99.90;;;;;;4972540;28;20662;-49
2023/04/12 04:12:36;;;;;;;2.70;1.37;;;7.60;99.90;;;;;;4972304;28;20224;-49
2023/04/12 04:15:03;;;;;;;1.87;1.77;;;7.60;99.90;;;;;;4970751;28;20622;-49
2023/04/12 04:17:30;;;;;;;1.47;1.37;;;7.50;99.90;;;;;;4972727;28;20738;-48
2023/04/12 04:19:58;;;;;;;2.60;1.90;;;7.50;99.90;;;;;;4973216;28;20231;-48
2023/04/12 04:22:25;;;;;;;3.40;2.17;;;7.50;99.90;;;;;;4967273;28;20230;-49
2023/04/12 04:24:52;;;;;;;3.00;2.20;;;7.50;99.90;;;;;;4972127;28;20206;-49
2023/04/12 04:27:21;;;;;;;2.30;2.13;;;7.60;99.90;;;;;;4969477;28;20758;-49
2023/04/12 04:29:49;;;;;;;2.33;2.20;;;7.60;99.90;;;;;;4965403;28;20557;-49
2023/04/12 04:32:16;;;;;;;3.13;2.83;;;7.60;99.90;;;;;;4973224;28;20281;-49
2023/04/12 04:34:43;;;;;;;1.83;1.73;;;7.60;99.90;;;;;;4973020;28;20263;-49
2023/04/12 04:37:12;;;;;;;2.50;2.30;;;7.60;99.90;;;;;;4972534;28;20210;-48
2023/04/12 04:39:39;;;;;;;4.57;2.97;;;7.50;99.90;;;;;;4969940;28;20206;-49
2023/04/12 04:42:06;;;;;;;3.30;3.00;;;7.50;99.90;;;;;;4967940;28;20225;-49
2023/04/12 04:44:34;;;;;;;5.07;2.27;;;7.50;99.90;;;;;;4970866;28;20212;-49
2023/04/12 04:47:02;;;;;;;5.77;3.23;;;7.50;99.90;;;;;;4972879;28;20245;-49
2023/04/12 04:49:32;;;;;;;3.00;2.90;;;7.50;99.90;;;;;;4972431;28;20213;-49
2023/04/12 04:51:59;;;;;;;3.70;3.43;;;7.50;99.90;;;;;;4972423;28;20234;-50
2023/04/12 04:54:27;;;;;;;2.53;2.43;;;7.50;99.90;;;;;;4969953;28;20565;-49
2023/04/12 04:56:55;;;;;;;3.27;3.07;;;7.60;99.90;;;;;;4970966;28;20594;-49
2023/04/12 04:59:22;;;;;;;4.17;3.33;;;7.50;99.90;;;;;;4966315;28;20603;-49
2023/04/12 05:01:50;;;;;;;2.70;2.60;;;7.60;99.90;;;;;;4963537;28;20253;-48
2023/04/12 05:04:17;;;;;;;3.53;3.23;;;7.60;99.90;;;;;;4966496;28;20215;-48
2023/04/12 05:06:46;;;;;;;3.73;3.47;;;7.60;99.90;;;;;;4971250;28;20278;-49
2023/04/12 05:09:13;;;;;;;2.77;2.67;;;7.50;99.90;;;;;;4971114;28;20208;-48
2023/04/12 05:11:43;;;;;;;3.40;3.20;;;7.60;99.90;;;;;;4970386;28;20232;-49
2023/04/12 05:14:10;;;;;;;4.03;3.63;;;7.70;99.90;;;;;;4967987;28;20202;-48
2023/04/12 05:16:37;;;;;;;3.33;3.10;;;7.70;99.90;;;;;;4971571;28;20289;-49
2023/04/12 05:19:03;;;;;;;3.50;3.20;;;7.60;99.90;;;;;;4970982;28;20565;-48
2023/04/12 05:21:31;;;;;;;3.93;3.50;;;7.60;99.90;;;;;;4971044;28;20281;-49
2023/04/12 05:23:58;;;;;;;4.30;3.67;;;7.60;99.90;;;;;;4970806;28;20214;-49
2023/04/12 05:26:26;;;;;;;4.03;3.83;;;7.60;99.90;;;;;;4971488;28;20631;-49
2023/04/12 05:28:54;;;;;;;3.00;2.80;;;7.60;99.90;;;;;;4972850;28;20679;-48
2023/04/12 05:31:21;;;;;;;3.23;2.97;;;7.70;99.90;;;;;;4978397;28;20222;-49
2023/04/12 05:33:49;;;;;;;2.70;2.53;;;7.70;99.90;;;;;;4977901;28;20417;-49
2023/04/12 05:36:16;;;;;;;2.53;2.30;;;7.70;99.90;;;;;;4973660;28;20206;-48
2023/04/12 05:38:43;;;;;;;2.43;2.33;;;7.80;99.90;;;;;;4974426;28;20206;-49
2023/04/12 05:41:10;;;;;;;2.57;1.93;;;7.80;99.90;;;;;;4975044;28;20231;-49
2023/04/12 05:43:37;;;;;;;3.03;2.10;;;7.80;99.90;;;;;;4975850;28;20248;-48
2023/04/12 05:46:06;;;;;;;4.37;3.07;;;7.70;99.90;;;;;;4973148;28;20204;-50
2023/04/12 05:48:33;;;;;;;2.40;2.23;;;7.80;99.90;;;;;;4972152;28;20225;-49
2023/04/12 05:51:02;;;;;;;2.63;2.50;;;7.80;99.90;;;;;;4974605;28;20683;-49
2023/04/12 05:53:31;;;;;;;2.73;2.47;;;7.80;99.90;;;;;;4974665;28;20255;-48
2023/04/12 05:55:58;;;;;;;3.63;2.77;;;7.80;99.90;;;;;;4977292;28;20201;-49
2023/04/12 05:58:25;;;;;;;2.70;2.47;;;7.80;99.90;;;;;;4970200;28;20214;-49
2023/04/12 06:00:53;;;;;;;1.80;1.70;;;7.80;99.90;;;;;;4976467;28;20272;-49
2023/04/12 06:03:22;;;;;;;5.83;2.93;;;7.80;99.90;;;;;;4977428;28;20244;-49
2023/04/12 06:05:50;;;;;;;3.77;3.47;;;7.80;99.90;;;;;;4978118;28;20206;-49
2023/04/12 06:08:17;;;;;;;7.80;3.03;;;7.80;99.90;;;;;;4978357;28;20586;-48
2023/04/12 06:10:44;;;;;;;3.23;3.00;;;7.90;99.90;;;;;;4978675;28;20623;-49
2023/04/12 06:13:11;;;;;;;3.87;3.57;;;7.90;99.90;;;;;;4978264;28;20553;-49
2023/04/12 06:15:38;;;;;;;3.27;3.07;;;7.90;99.90;;;;;;4977227;28;20253;-48
2023/04/12 06:18:07;;;;;;;4.17;3.67;;;7.90;99.90;;;;;;4978046;28;20202;-49
2023/04/12 06:20:38;;;;;;;4.90;3.63;;;7.90;99.90;;;;;;4977457;28;20226;-49
2023/04/12 06:23:05;;;;;;;3.43;3.17;;;7.90;99.90;;;;;;4968944;28;20201;-49
2023/04/12 06:25:32;;;;;;;3.27;3.00;;;8.10;99.90;;;;;;4975548;28;20778;-49
2023/04/12 06:27:59;;;;;;;3.17;2.97;;;8.10;99.90;;;;;;4978059;28;20210;-49
2023/04/12 06:30:26;;;;;;;2.53;2.33;;;8.10;99.90;;;;;;4977702;28;20210;-49
2023/04/12 06:32:53;;;;;;;2.33;2.23;;;8.20;99.90;;;;;;4978167;28;20210;-49
2023/04/12 06:35:21;;;;;;;3.77;3.47;;;8.20;99.90;;;;;;4977443;28;20211;-49
2023/04/12 06:37:49;;;;;;;2.50;2.30;;;8.30;99.90;;;;;;4978041;28;20710;-49
2023/04/12 06:40:16;;;;;;;2.70;2.30;;;8.20;99.90;;;;;;4974008;28;20272;-49
2023/04/12 06:42:43;;;;;;;1.70;1.60;;;8.30;99.90;;;;;;4974798;28;20198;-48
2023/04/12 06:45:11;;;;;;;2.97;1.47;;;8.30;99.90;;;;;;4974869;28;20206;-49
2023/04/12 06:47:38;;;;;;;1.73;1.60;;;8.30;99.90;;;;;;4956122;28;20230;-48
2023/04/12 06:50:06;;;;;;;2.20;2.00;;;8.30;99.90;;;;;;4971604;28;20198;-48
2023/04/12 06:52:34;;;;;;;3.67;1.53;;;8.30;99.90;;;;;;4974771;28;20243;-49
2023/04/12 06:55:03;;;;;;;3.60;1.93;;;8.20;99.90;;;;;;4970535;28;20202;-49
2023/04/12 06:57:30;;;;;;;1.93;1.77;;;8.30;99.90;;;;;;4974527;28;20296;-49
2023/04/12 06:59:57;;;;;;;2.50;1.63;;;8.30;99.90;;;;;;4974660;28;20210;-49
2023/04/12 07:02:26;;;;;;;3.50;2.73;;;8.40;99.90;;;;;;4974440;28;20230;-48
2023/04/12 07:04:53;;;;;;;4.60;2.17;;;8.30;99.90;;;;;;4974866;28;20298;-48
2023/04/12 07:07:20;;;;;;;3.23;2.37;;;8.40;99.90;;;;;;4974625;28;20702;-49
2023/04/12 07:09:47;;;;;;;1.60;1.50;;;8.40;99.90;;;;;;4972844;28;20202;-49
2023/04/12 07:12:16;;;;;;;2.23;1.57;;;8.40;99.90;;;;;;4972367;28;20222;-49
2023/04/12 07:14:43;;;;;;;3.00;2.13;;;8.40;99.90;;;;;;4972861;28;20996;-49
2023/04/12 07:17:10;;;;;;;2.27;2.07;;;8.40;99.90;;;;;;4969388;28;20283;-48
2023/04/12 07:19:42;;;;;;;2.47;2.37;;;8.50;99.90;;;;;;4971826;28;20242;-48
2023/04/12 07:22:10;;;;;;;2.63;2.53;;;8.50;99.90;;;;;;4964362;28;20299;-48
2023/04/12 07:24:37;;;;;;;3.10;2.20;;;8.50;99.90;;;;;;4955136;28;20292;-49
2023/04/12 07:27:04;;;;;;;2.13;2.03;;;8.60;99.90;;;;;;4961080;28;20218;-49
2023/04/12 07:29:33;;;;;;;2.70;2.50;;;8.60;99.90;;;;;;4973915;28;20208;-48
2023/04/12 07:32:00;;;;;;;2.07;1.87;;;8.60;99.90;;;;;;4973986;28;20226;-49
2023/04/12 07:34:28;;;;;;;1.93;1.53;;;8.50;99.90;;;;;;4973966;28;20201;-49
2023/04/12 07:36:55;;;;;;;1.43;1.33;;;8.60;99.90;;;;;;4973910;28;20225;-49
2023/04/12 07:39:22;;;;;;;1.60;1.57;;;8.70;99.90;;;;;;4973697;28;20210;-49
2023/04/12 07:41:50;;;;;;;1.40;1.40;;;8.80;99.90;;;;;;4972649;28;20255;-48
2023/04/12 07:44:18;;;;;;;1.73;1.63;;;9.00;99.90;;;;;;4968615;28;20741;-48
2023/04/12 07:46:46;;;;;;;2.57;2.10;;;9.20;99.90;;;;;;4972559;28;20649;-49
2023/04/12 07:49:13;;;;;;;3.07;1.73;;;9.40;99.90;;;;;;4968489;28;20202;-49
2023/04/12 07:51:41;;;;;;;1.57;1.40;;;9.60;99.90;;;;;;4968854;28;20241;-49
2023/04/12 07:54:08;;;;;;;2.47;1.50;;;9.60;99.90;;;;;;4969062;28;20276;-48
2023/04/12 07:56:35;;;;;;;1.00;1.00;;;9.60;99.90;;;;;;4969844;28;20210;-49
2023/04/12 07:59:02;;;;;;;1.10;1.10;;;9.60;99.90;;;;;;4973570;28;20203;-49
2023/04/12 08:01:29;;;;;;;3.67;0.93;;;9.50;99.90;;;;;;4970878;28;20755;-48
2023/04/12 08:03:58;;;;;;;0.80;0.80;;;9.60;99.90;;;;;;4972743;28;20221;-49
2023/04/12 08:06:25;;;;;;;1.10;1.10;;;9.70;99.90;;;;;;4973100;28;20641;-49
2023/04/12 08:08:52;;;;;;;1.33;1.20;;;9.80;99.90;;;;;;4974083;28;20650;-48
2023/04/12 08:11:19;;;;;;;0.90;0.90;;;10.00;99.90;;;;;;4967013;28;20221;-48
2023/04/12 08:13:46;;;;;;;1.03;0.87;;;10.60;99.90;;;;;;4969048;28;20211;-49
2023/04/12 08:16:13;;;;;;;1.70;0.97;;;11.60;99.90;;;;;;4973265;28;20267;-49
2023/04/12 08:18:41;;;;;;;0.70;0.70;;;12.90;99.90;;;;;;4971953;28;20213;-49
2023/04/12 08:21:09;;;;;;;0.70;0.70;;;13.30;99.90;;;;;;4972076;28;20234;-49
2023/04/12 08:23:37;;;;;;;0.50;0.50;;;13.70;99.90;;;;;;4971844;28;20289;-49
2023/04/12 08:26:04;;;;;;;2.00;0.53;;;14.30;99.90;;;;;;4971444;28;20725;-49
2023/04/12 08:28:32;;;;;;;0.60;0.60;;;14.70;99.90;;;;;;4972069;28;20217;-49
2023/04/12 08:30:59;;;;;;;0.60;0.60;;;14.40;99.90;;;;;;4972713;28;20864;-48
2023/04/12 08:33:26;;;;;;;1.07;0.57;;;14.50;99.90;;;;;;4973174;28;20219;-49
2023/04/12 08:35:53;;;;;;;3.70;1.70;;;14.20;99.90;;;;;;4971966;28;20265;-51
2023/04/12 08:38:22;;;;;;;1.03;0.50;;;14.20;99.90;;;;;;4972610;28;20323;-51
2023/04/12 08:40:49;;;;;;;1.40;0.60;;;13.90;99.90;;;;;;4972656;28;20227;-50
2023/04/12 08:43:18;;;;;;;1.13;0.40;;;14.20;99.90;;;;;;4971287;28;20207;-48
2023/04/12 08:45:46;;;;;;;2.07;0.50;;;14.70;99.90;;;;;;4971029;28;20212;-48
2023/04/12 08:48:15;;;;;;;0.93;0.80;;;14.90;99.90;;;;;;4971684;28;20197;-49
2023/04/12 08:50:43;;;;;;;0.53;0.40;;;15.50;99.90;;;;;;4968473;28;20283;-48
2023/04/12 08:53:11;;;;;;;0.60;0.30;;;16.10;99.90;;;;;;4974343;28;20710;-48
2023/04/12 08:55:39;;;;;;;0.47;0.40;;;16.40;99.90;;;;;;4970991;28;20267;-49
2023/04/12 08:58:08;;;;;;;1.30;0.70;;;17.00;99.90;;;;;;4971475;28;20201;-49
2023/04/12 09:00:37;;;;;;;1.33;0.60;;;17.00;99.90;;;;;;4976365;28;20303;-49
2023/04/12 09:03:05;;;;;;;1.17;0.43;;;17.00;99.90;;;;;;4971489;28;20272;-49
2023/04/12 09:05:32;;;;;;;1.90;0.60;;;17.20;99.90;;;;;;4971633;28;20255;-49
2023/04/12 09:07:59;;;;;;;1.03;0.77;;;17.40;99.90;;;;;;4955816;28;20357;-49
2023/04/12 09:10:35;;;;;;;0.80;0.70;;;17.80;99.90;;;;;;4969692;28;20737;-49
2023/04/12 09:13:04;;;;;;;1.43;0.50;;;18.40;99.90;;;;;;4965521;28;20192;-49
2023/04/12 09:15:31;;;;;;;0.40;0.40;;;18.70;99.90;;;;;;4970659;28;20267;-49
2023/04/12 09:18:06;;;;;;;0.50;0.50;;;18.60;99.90;;;;;;4969522;28;20205;-49
2023/04/12 09:20:34;;;;;;;0.70;0.70;;;18.60;99.90;;;;;;4970891;28;20204;-49
2023/04/12 09:23:01;;;;;;;0.50;0.50;;;19.00;99.90;;;;;;4970432;28;20339;-49
2023/04/12 09:25:40;;;;;;;2.10;0.60;;;19.30;99.90;;;;;;4970650;28;20274;-48
2023/04/12 09:28:24;;;;;;;2.93;0.60;;;19.60;99.90;;;;;;4980243;28;20227;-49
2023/04/12 09:30:52;;;;;;;1.80;0.50;;;19.40;99.90;;;;;;4964720;28;20725;-50
2023/04/12 09:33:20;;;;;;;1.63;0.57;;;19.20;99.90;;;;;;4969223;28;20690;-50
2023/04/12 09:35:47;;;;;;;0.50;0.50;;;19.20;99.90;;;;;;4970934;28;20279;-49
2023/04/12 09:38:15;;;;;;;2.00;0.30;;;19.20;99.90;;;;;;4975362;28;20255;-49
2023/04/12 09:40:42;;;;;;;0.73;0.73;;;19.20;99.90;;;;;;4968850;28;20308;-49
2023/04/12 09:43:09;;;;;;;2.60;0.87;;;18.80;99.90;;;;;;4973816;28;20219;-49
2023/04/12 09:45:41;;;;;;;0.50;0.40;;;18.40;99.90;;;;;;4971140;28;20578;-49
2023/04/12 09:48:17;;;;;;;0.80;0.80;;;18.00;99.90;;;;;;4960852;28;20244;-50
2023/04/12 09:50:46;;;;;;;0.40;0.40;;;17.60;99.90;;;;;;4967673;28;20228;-50
2023/04/12 09:53:17;;;;;;;2.93;0.83;;;17.10;99.90;;;;;;5012565;23;21294;-49
2023/04/12 09:55:45;;;;;;;1.53;0.80;;;16.40;99.90;;;;;;4990964;28;20200;-49
2023/04/12 09:58:12;;;;;;;0.97;0.83;;;15.90;99.90;;;;;;4989592;28;20203;-49
2023/04/12 10:00:42;;;;;;;0.70;0.70;;;15.60;99.90;;;;;;4986860;28;20694;-49
2023/04/12 10:03:09;;;;;;;0.60;0.60;;;15.90;99.90;;;;;;4999099;28;20227;-49
2023/04/12 10:05:39;;;;;;;0.50;0.50;;;16.10;99.90;;;;;;4986997;28;20212;-49
2023/04/12 10:08:06;;;;;;;0.73;0.43;;;16.20;99.90;;;;;;4982863;28;20681;-50
2023/04/12 10:10:33;;;;;;;0.40;0.40;;;16.60;99.90;;;;;;4988611;28;20259;-49
2023/04/12 10:13:01;;;;;;;0.50;0.50;;;16.90;99.90;;;;;;5001265;28;20231;-49
2023/04/12 10:15:30;;;;;;;1.27;1.07;;;17.10;99.90;;;;;;4993475;28;20669;-49
2023/04/12 10:17:58;;;;;;;1.80;0.47;;;18.00;99.90;;;;;;5002763;28;20207;-49
2023/04/12 10:20:25;;;;;;;1.43;0.70;;;18.70;99.90;;;;;;4985538;28;20204;-50
2023/04/12 10:22:53;;;;;;;0.70;0.70;;;18.30;99.90;;;;;;4984517;28;20302;-50
2023/04/12 10:25:22;;;;;;;0.70;0.50;;;18.50;99.90;;;;;;4983704;28;20904;-50
2023/04/12 10:27:49;;;;;;;0.40;0.40;;;18.40;99.90;;;;;;5006402;28;20619;-50
2023/04/12 10:30:21;;;;;;;0.80;0.80;;;18.50;99.90;;;;;;4999112;28;20201;-50
2023/04/12 10:32:49;;;;;;;1.13;0.43;;;19.00;99.90;;;;;;4978614;28;20331;-49
2023/04/12 10:35:18;;;;;;;2.97;0.73;;;19.60;99.90;;;;;;4983973;28;20203;-49
2023/04/12 10:37:59;;;;;;;0.97;0.70;;;20.10;99.90;;;;;;4994119;28;20208;-49
2023/04/12 10:40:26;;;;;;;1.00;0.90;;;20.00;99.90;;;;;;4997512;28;20207;-49
2023/04/12 10:43:26;;;;;;;1.50;1.50;;;19.90;99.90;;;;;;4996957;28;20219;-49
2023/04/12 10:45:54;;;;;;;3.70;3.50;;;20.30;99.90;;;;;;4990523;28;20285;-50
2023/04/12 10:48:31;;;;;;;3.40;2.97;;;20.60;99.90;;;;;;5001479;28;20621;-49
2023/04/12 10:51:21;;;;;;;2.07;1.97;;;20.60;99.90;;;;;;4987905;28;20271;-50
2023/04/12 10:53:49;;;;;;;0.73;0.73;;;20.70;99.90;;;;;;4988602;28;20203;-49
2023/04/12 10:56:41;;;;;;;1.93;0.90;;;20.30;99.90;;;;;;4991038;28;20580;-49
2023/04/12 10:59:08;;;;;;;0.93;0.93;;;19.70;99.90;;;;;;4976455;28;20215;-49
2023/04/12 11:01:36;;;;;;;2.43;0.90;;;19.30;99.90;;;;;;4991595;28;20283;-50
2023/04/12 11:04:23;;;;;;;1.23;0.77;;;19.40;99.90;;;;;;5010173;28;20680;-50
2023/04/12 11:06:56;;;;;;;4.07;3.77;;;19.10;99.90;;;;;;5007970;28;20199;-50
2023/04/12 11:09:26;;;;;;;1.60;1.03;;;19.20;99.90;;;;;;4981775;28;20204;-50
2023/04/12 11:11:58;;;;;;;1.13;0.60;;;19.30;99.90;;;;;;4989630;28;20656;-50
2023/04/12 11:14:30;;;;;;;0.77;0.73;;;19.10;99.90;;;;;;4982524;28;20275;-49
2023/04/12 11:17:27;;;;;;;1.43;1.33;;;18.90;99.90;;;;;;5000505;28;20200;-48
2023/04/12 11:19:56;;;;;;;0.60;0.60;;;18.60;99.90;;;;;;4982255;28;20222;-48
2023/04/12 11:22:26;;;;;;;0.70;0.70;;;18.80;99.90;;;;;;4989577;28;20299;-48
2023/04/12 11:24:55;;;;;;;0.87;0.87;;;18.80;99.90;;;;;;4993378;28;20592;-48
2023/04/12 11:27:23;;;;;;;0.80;0.80;;;18.70;99.90;;;;;;4988746;28;20199;-48
2023/04/12 11:29:53;;;;;;;2.00;0.50;;;18.10;99.90;;;;;;4997764;28;20203;-48
2023/04/12 11:32:22;;;;;;;1.70;1.30;;;18.10;99.90;;;;;;4992173;28;20220;-49
2023/04/12 11:34:49;;;;;;;1.67;0.47;;;18.50;99.90;;;;;;4982339;28;20203;-48
2023/04/12 11:37:19;;;;;;;1.00;0.50;;;18.80;99.90;;;;;;4980364;28;20236;-48
2023/04/12 11:39:49;;;;;;;1.47;0.50;;;18.80;99.90;;;;;;4992395;28;20758;-48
2023/04/12 11:42:18;;;;;;;0.40;0.40;;;18.90;99.90;;;;;;5004293;28;20270;-48
2023/04/12 11:44:47;;;;;;;0.67;0.67;;;19.00;99.90;;;;;;4998253;28;20196;-49
2023/04/12 11:47:18;;;;;;;0.50;0.50;;;19.10;99.90;;;;;;4976172;28;20246;-48
2023/04/12 11:49:47;;;;;;;0.70;0.70;;;19.00;99.90;;;;;;4982104;28;20340;-48
2023/04/12 11:52:15;;;;;;;1.03;0.33;;;18.80;99.90;;;;;;4990318;28;20310;-48
2023/04/12 11:54:48;;;;;;;0.60;0.60;;;18.30;99.90;;;;;;5005017;28;20239;-49
2023/04/12 11:57:16;;;;;;;0.67;0.67;;;18.40;99.90;;;;;;4998633;28;20247;-48
2023/04/12 11:59:45;;;;;;;0.97;0.50;;;18.50;99.90;;;;;;5003718;28;20203;-48
2023/04/12 12:02:13;;;;;;;1.43;0.50;;;18.50;99.90;;;;;;5002095;28;20299;-49
2023/04/12 12:04:41;;;;;;;2.40;0.80;;;18.40;99.90;;;;;;4992440;28;20219;-48
2023/04/12 12:07:10;;;;;;;0.57;0.57;;;18.20;99.90;;;;;;4988931;28;20418;-48
2023/04/12 12:09:38;;;;;;;2.20;0.60;;;18.10;99.90;;;;;;5000338;28;20617;-48
2023/04/12 12:12:07;;;;;;;0.70;0.60;;;18.00;99.90;;;;;;4994668;28;20706;-48
2023/04/12 12:14:36;;;;;;;0.93;0.70;;;17.90;99.90;;;;;;4980797;28;20291;-48
2023/04/12 12:17:08;;;;;;;0.40;0.40;;;17.80;99.90;;;;;;4998681;28;20199;-48
2023/04/12 12:19:38;;;;;;;1.80;0.67;;;17.30;99.90;;;;;;5004804;28;20199;-48
2023/04/12 12:22:16;;;;;;;2.33;0.53;;;17.10;99.90;;;;;;5012812;28;20675;-48
2023/04/12 12:24:47;;;;;;;6.47;1.50;;;17.00;99.90;;;;;;5012892;28;20199;-48
2023/04/12 12:27:18;;;;;;;2.53;1.47;;;16.50;99.90;;;;;;5010601;28;20207;-48
2023/04/12 12:29:50;;;;;;;1.97;1.87;;;16.00;99.90;;;;;;4992759;28;20200;-48
2023/04/12 12:32:18;;;;;;;4.23;1.73;;;16.00;99.90;;;;;;4992988;28;20223;-49
2023/04/12 12:34:51;;;;;;;1.47;1.27;;;15.90;99.90;;;;;;4992911;28;20208;-48
2023/04/12 12:37:21;;;;;;;2.33;1.43;;;15.90;99.90;;;;;;4988813;28;20218;-48
2023/04/12 12:40:10;;;;;;;5.13;1.43;;;15.90;99.90;;;;;;4993040;28;20223;-48
2023/04/12 12:42:47;;;;;;;2.20;2.00;;;16.00;99.90;;;;;;4992868;28;20232;-48
2023/04/12 12:45:14;;;;;;;2.13;1.93;;;16.20;99.90;;;;;;4992924;28;20706;-48
2023/04/12 12:47:49;;;;;;;4.20;2.10;;;16.10;99.90;;;;;;4990964;28;20204;-48
2023/04/12 12:50:17;;;;;;;3.43;1.47;;;16.10;99.90;;;;;;5000559;28;20616;-49
2023/04/12 12:52:46;;;;;;;1.37;1.00;;;16.00;99.90;;;;;;5012023;28;20677;-48
2023/04/12 12:55:13;;;;;;;4.40;1.90;;;16.30;99.90;;;;;;5012394;28;20207;-48
2023/04/12 12:57:44;;;;;;;5.57;2.63;;;16.40;99.90;;;;;;5012118;28;20240;-47
2023/04/12 13:00:14;;;;;;;1.40;1.40;;;16.50;99.90;;;;;;5012113;28;20226;-48
2023/04/12 13:02:41;;;;;;;1.50;1.40;;;16.60;99.90;;;;;;5003209;28;20293;-48